sensor_id;sensor_type;location;lat;lon;timestamp;pressure;altitude;pressure_sealevel;temperature;humidity
8051;BME280;4068;42.158;24.732;2022-12-29T00:01:24;100827.78;;;4.01;100.00
8051;BME280;4068;42.158;24.732;2022-12-29T00:03:49;100870.19;;;4.15;100.00
8051;BME280;4068;42.158;24.732;2022-12-29T00:06:15;100879.84;;;4.15;100.00
8051;BME280;4068;42.158;24.732;2022-12-29T00:08:40;100865.91;;;4.13;100.00
8051;BME280;4068;42.158;24.732;2022-12-29T00:11:12;100875.41;;;4.17;100.00
8051;BME280;4068;42.158;24.732;2022-12-29T00:13:38;100867.56;;;4.15;100.00
8051;BME280;4068;42.158;24.732;2022-12-29T00:16:22;100881.47;;;4.19;100.00
8051;BME280;4068;42.158;24.732;2022-12-29T00:18:48;100884.84;;;4.23;100.00
8051;BME280;4068;42.158;24.732;2022-12-29T00:21:14;100898.69;;;4.28;100.00
8051;BME280;4068;42.158;24.732;2022-12-29T00:23:59;100886.00;;;4.41;100.00
8051;BME280;4068;42.158;24.732;2022-12-29T00:26:40;100886.50;;;4.52;100.00
8051;BME280;4068;42.158;24.732;2022-12-29T00:29:24;100885.13;;;4.67;100.00
8051;BME280;4068;42.158;24.732;2022-12-29T00:32:09;100864.91;;;4.69;100.00
8051;BME280;4068;42.158;24.732;2022-12-29T00:34:53;100881.72;;;4.89;100.00
8051;BME280;4068;42.158;24.732;2022-12-29T00:37:39;100889.94;;;5.05;100.00
8051;BME280;4068;42.158;24.732;2022-12-29T00:40:24;100905.50;;;5.11;100.00
8051;BME280;4068;42.158;24.732;2022-12-29T00:43:08;100908.78;;;5.17;100.00
8051;BME280;4068;42.158;24.732;2022-12-29T00:45:52;100897.44;;;5.15;100.00
8051;BME280;4068;42.158;24.732;2022-12-29T00:48:17;100909.31;;;5.27;100.00
8051;BME280;4068;42.158;24.732;2022-12-29T00:51:03;100914.31;;;5.33;100.00
8051;BME280;4068;42.158;24.732;2022-12-29T00:53:28;100911.47;;;5.40;100.00
8051;BME280;4068;42.158;24.732;2022-12-29T00:55:54;100923.53;;;5.45;100.00
8051;BME280;4068;42.158;24.732;2022-12-29T00:58:19;100922.69;;;5.45;100.00
8051;BME280;4068;42.158;24.732;2022-12-29T01:00:44;100927.06;;;5.44;100.00
8051;BME280;4068;42.158;24.732;2022-12-29T01:03:10;100914.09;;;5.40;100.00
8051;BME280;4068;42.158;24.732;2022-12-29T01:05:36;100924.63;;;5.40;100.00
8051;BME280;4068;42.158;24.732;2022-12-29T01:08:02;100897.84;;;5.05;100.00
8051;BME280;4068;42.158;24.732;2022-12-29T01:10:28;100875.69;;;4.87;100.00
8051;BME280;4068;42.158;24.732;2022-12-29T01:12:53;100917.09;;;5.05;100.00
8051;BME280;4068;42.158;24.732;2022-12-29T01:15:19;100909.38;;;5.00;100.00
8051;BME280;4068;42.158;24.732;2022-12-29T01:17:44;100909.50;;;4.97;100.00
8051;BME280;4068;42.158;24.732;2022-12-29T01:20:11;100911.06;;;5.01;100.00
8051;BME280;4068;42.158;24.732;2022-12-29T01:22:36;100896.22;;;5.00;100.00
8051;BME280;4068;42.158;24.732;2022-12-29T01:25:03;100869.34;;;4.92;100.00
8051;BME280;4068;42.158;24.732;2022-12-29T01:27:28;100903.59;;;5.14;100.00
8051;BME280;4068;42.158;24.732;2022-12-29T01:29:53;100900.72;;;5.22;100.00
8051;BME280;4068;42.158;24.732;2022-12-29T01:32:19;100903.09;;;5.28;100.00
8051;BME280;4068;42.158;24.732;2022-12-29T01:34:44;100903.97;;;5.29;100.00
8051;BME280;4068;42.158;24.732;2022-12-29T01:37:10;100892.88;;;5.21;100.00
8051;BME280;4068;42.158;24.732;2022-12-29T01:39:35;100895.28;;;5.27;100.00
8051;BME280;4068;42.158;24.732;2022-12-29T01:42:01;100899.50;;;5.31;100.00
8051;BME280;4068;42.158;24.732;2022-12-29T01:44:54;100883.97;;;5.25;100.00
8051;BME280;4068;42.158;24.732;2022-12-29T01:55:21;100872.56;;;5.48;100.00
8051;BME280;4068;42.158;24.732;2022-12-29T01:57:49;100865.63;;;5.45;100.00
8051;BME280;4068;42.158;24.732;2022-12-29T02:00:16;100861.25;;;5.46;100.00
8051;BME280;4068;42.158;24.732;2022-12-29T02:02:52;100865.06;;;5.61;100.00
8051;BME280;4068;42.158;24.732;2022-12-29T02:05:49;100856.25;;;5.62;100.00
8051;BME280;4068;42.158;24.732;2022-12-29T02:08:19;100848.41;;;5.60;100.00
8051;BME280;4068;42.158;24.732;2022-12-29T02:10:46;100847.41;;;5.63;100.00
8051;BME280;4068;42.158;24.732;2022-12-29T02:13:15;100851.78;;;5.64;100.00
8051;BME280;4068;42.158;24.732;2022-12-29T02:18:49;100845.84;;;5.81;100.00
8051;BME280;4068;42.158;24.732;2022-12-29T02:27:04;100825.59;;;5.37;100.00
8051;BME280;4068;42.158;24.732;2022-12-29T02:41:01;100815.22;;;4.61;100.00
8051;BME280;4068;42.158;24.732;2022-12-29T02:43:59;100814.63;;;4.53;100.00
8051;BME280;4068;42.158;24.732;2022-12-29T02:49:24;100811.59;;;4.40;100.00
8051;BME280;4068;42.158;24.732;2022-12-29T02:52:00;100815.44;;;4.30;100.00
8051;BME280;4068;42.158;24.732;2022-12-29T02:54:27;100804.34;;;4.22;100.00
8051;BME280;4068;42.158;24.732;2022-12-29T02:57:15;100805.31;;;4.19;100.00
8051;BME280;4068;42.158;24.732;2022-12-29T02:59:42;100793.59;;;4.03;100.00
8051;BME280;4068;42.158;24.732;2022-12-29T03:10:33;100811.38;;;4.21;100.00
8051;BME280;4068;42.158;24.732;2022-12-29T03:21:31;100803.91;;;3.82;100.00
8051;BME280;4068;42.158;24.732;2022-12-29T03:24:18;100783.78;;;3.54;100.00
8051;BME280;4068;42.158;24.732;2022-12-29T03:26:45;100802.97;;;3.56;100.00
8051;BME280;4068;42.158;24.732;2022-12-29T03:29:13;100777.50;;;3.32;100.00
8051;BME280;4068;42.158;24.732;2022-12-29T03:31:40;100801.63;;;3.43;100.00
8051;BME280;4068;42.158;24.732;2022-12-29T03:34:08;100793.53;;;3.22;100.00
8051;BME280;4068;42.158;24.732;2022-12-29T03:36:42;100768.66;;;3.06;100.00
8051;BME280;4068;42.158;24.732;2022-12-29T03:39:11;100800.59;;;3.19;100.00
8051;BME280;4068;42.158;24.732;2022-12-29T03:41:42;100803.47;;;3.11;100.00
8051;BME280;4068;42.158;24.732;2022-12-29T03:44:10;100795.84;;;3.02;100.00
8051;BME280;4068;42.158;24.732;2022-12-29T03:46:35;100798.47;;;3.02;100.00
8051;BME280;4068;42.158;24.732;2022-12-29T03:49:01;100801.28;;;2.96;100.00
8051;BME280;4068;42.158;24.732;2022-12-29T03:51:26;100796.25;;;2.88;100.00
8051;BME280;4068;42.158;24.732;2022-12-29T03:53:52;100799.09;;;2.80;100.00
8051;BME280;4068;42.158;24.732;2022-12-29T03:56:17;100788.84;;;2.72;100.00
8051;BME280;4068;42.158;24.732;2022-12-29T03:58:43;100761.44;;;2.53;100.00
8051;BME280;4068;42.158;24.732;2022-12-29T04:01:08;100791.56;;;2.68;100.00
8051;BME280;4068;42.158;24.732;2022-12-29T04:03:34;100795.97;;;2.67;100.00
8051;BME280;4068;42.158;24.732;2022-12-29T04:05:59;100801.25;;;2.66;100.00
8051;BME280;4068;42.158;24.732;2022-12-29T04:08:25;100803.00;;;2.65;100.00
8051;BME280;4068;42.158;24.732;2022-12-29T04:10:50;100807.28;;;2.68;100.00
8051;BME280;4068;42.158;24.732;2022-12-29T04:13:16;100815.28;;;2.63;100.00
8051;BME280;4068;42.158;24.732;2022-12-29T04:15:43;100811.84;;;2.61;100.00
8051;BME280;4068;42.158;24.732;2022-12-29T04:18:08;100812.00;;;2.55;100.00
8051;BME280;4068;42.158;24.732;2022-12-29T04:20:34;100799.03;;;2.50;100.00
8051;BME280;4068;42.158;24.732;2022-12-29T04:23:18;100811.09;;;2.56;100.00
8051;BME280;4068;42.158;24.732;2022-12-29T04:25:45;100794.81;;;2.45;100.00
8051;BME280;4068;42.158;24.732;2022-12-29T04:28:12;100817.19;;;2.56;100.00
8051;BME280;4068;42.158;24.732;2022-12-29T04:30:38;100821.59;;;2.56;100.00
8051;BME280;4068;42.158;24.732;2022-12-29T04:33:03;100825.84;;;2.60;100.00
8051;BME280;4068;42.158;24.732;2022-12-29T04:35:29;100827.63;;;2.59;100.00
8051;BME280;4068;42.158;24.732;2022-12-29T04:37:54;100834.41;;;2.67;100.00
8051;BME280;4068;42.158;24.732;2022-12-29T04:40:19;100801.75;;;2.47;100.00
8051;BME280;4068;42.158;24.732;2022-12-29T04:42:45;100847.41;;;2.70;100.00
8051;BME280;4068;42.158;24.732;2022-12-29T04:45:10;100824.03;;;2.64;100.00
8051;BME280;4068;42.158;24.732;2022-12-29T04:47:36;100831.88;;;2.62;100.00
8051;BME280;4068;42.158;24.732;2022-12-29T04:50:01;100840.44;;;2.69;100.00
8051;BME280;4068;42.158;24.732;2022-12-29T04:52:27;100840.59;;;2.64;100.00
8051;BME280;4068;42.158;24.732;2022-12-29T04:54:52;100838.03;;;2.61;100.00
8051;BME280;4068;42.158;24.732;2022-12-29T04:57:17;100846.00;;;2.58;100.00
8051;BME280;4068;42.158;24.732;2022-12-29T04:59:43;100845.06;;;2.59;100.00
8051;BME280;4068;42.158;24.732;2022-12-29T05:02:08;100846.72;;;2.63;100.00
8051;BME280;4068;42.158;24.732;2022-12-29T05:04:34;100859.16;;;2.55;100.00
8051;BME280;4068;42.158;24.732;2022-12-29T05:06:59;100817.84;;;2.32;100.00
8051;BME280;4068;42.158;24.732;2022-12-29T05:09:25;100819.72;;;2.27;100.00
8051;BME280;4068;42.158;24.732;2022-12-29T05:11:50;100858.84;;;2.33;100.00
8051;BME280;4068;42.158;24.732;2022-12-29T05:14:15;100863.25;;;2.31;100.00
8051;BME280;4068;42.158;24.732;2022-12-29T05:16:41;100857.97;;;2.32;100.00
8051;BME280;4068;42.158;24.732;2022-12-29T05:19:06;100860.69;;;2.29;100.00
8051;BME280;4068;42.158;24.732;2022-12-29T05:21:32;100831.41;;;2.13;100.00
8051;BME280;4068;42.158;24.732;2022-12-29T05:23:57;100856.53;;;2.20;100.00
8051;BME280;4068;42.158;24.732;2022-12-29T05:26:22;100844.47;;;2.15;100.00
8051;BME280;4068;42.158;24.732;2022-12-29T05:28:48;100841.06;;;2.11;100.00
8051;BME280;4068;42.158;24.732;2022-12-29T05:31:13;100845.56;;;2.06;100.00
8051;BME280;4068;42.158;24.732;2022-12-29T05:33:39;100850.63;;;2.12;100.00
8051;BME280;4068;42.158;24.732;2022-12-29T05:36:05;100801.31;;;1.95;100.00
8051;BME280;4068;42.158;24.732;2022-12-29T05:38:31;100843.69;;;2.11;100.00
8051;BME280;4068;42.158;24.732;2022-12-29T05:40:57;100836.84;;;2.05;100.00
8051;BME280;4068;42.158;24.732;2022-12-29T05:43:22;100837.66;;;2.07;100.00
8051;BME280;4068;42.158;24.732;2022-12-29T05:45:51;100828.34;;;1.96;100.00
8051;BME280;4068;42.158;24.732;2022-12-29T05:48:16;100836.13;;;1.99;100.00
8051;BME280;4068;42.158;24.732;2022-12-29T05:50:42;100830.81;;;2.02;100.00
8051;BME280;4068;42.158;24.732;2022-12-29T05:53:08;100826.13;;;2.15;100.00
8051;BME280;4068;42.158;24.732;2022-12-29T05:55:34;100796.06;;;1.97;100.00
8051;BME280;4068;42.158;24.732;2022-12-29T05:57:59;100816.00;;;2.01;100.00
8051;BME280;4068;42.158;24.732;2022-12-29T06:00:25;100825.53;;;2.03;100.00
8051;BME280;4068;42.158;24.732;2022-12-29T06:02:50;100819.41;;;2.04;100.00
8051;BME280;4068;42.158;24.732;2022-12-29T06:05:16;100840.16;;;2.12;100.00
8051;BME280;4068;42.158;24.732;2022-12-29T06:07:41;100842.69;;;2.17;100.00
8051;BME280;4068;42.158;24.732;2022-12-29T06:10:07;100814.22;;;2.03;100.00
8051;BME280;4068;42.158;24.732;2022-12-29T06:12:33;100831.78;;;2.32;100.00
8051;BME280;4068;42.158;24.732;2022-12-29T06:14:58;100798.50;;;2.37;100.00
8051;BME280;4068;42.158;24.732;2022-12-29T06:17:23;100839.50;;;2.71;100.00
8051;BME280;4068;42.158;24.732;2022-12-29T06:19:49;100798.16;;;2.51;100.00
8051;BME280;4068;42.158;24.732;2022-12-29T06:22:14;100839.34;;;2.78;100.00
8051;BME280;4068;42.158;24.732;2022-12-29T06:24:40;100833.75;;;2.90;100.00
8051;BME280;4068;42.158;24.732;2022-12-29T06:27:06;100828.53;;;2.90;100.00
8051;BME280;4068;42.158;24.732;2022-12-29T06:29:31;100838.78;;;2.98;100.00
8051;BME280;4068;42.158;24.732;2022-12-29T06:31:57;100855.97;;;3.08;100.00
8051;BME280;4068;42.158;24.732;2022-12-29T06:34:26;100852.44;;;3.09;100.00
8051;BME280;4068;42.158;24.732;2022-12-29T06:36:51;100855.72;;;3.17;100.00
8051;BME280;4068;42.158;24.732;2022-12-29T06:39:17;100863.56;;;3.17;100.00
8051;BME280;4068;42.158;24.732;2022-12-29T06:41:42;100856.88;;;3.07;100.00
8051;BME280;4068;42.158;24.732;2022-12-29T06:44:07;100869.66;;;3.19;100.00
8051;BME280;4068;42.158;24.732;2022-12-29T06:46:33;100875.75;;;3.20;100.00
8051;BME280;4068;42.158;24.732;2022-12-29T06:48:58;100880.09;;;3.21;100.00
8051;BME280;4068;42.158;24.732;2022-12-29T06:51:24;100860.44;;;3.04;100.00
8051;BME280;4068;42.158;24.732;2022-12-29T06:53:49;100885.56;;;3.11;100.00
8051;BME280;4068;42.158;24.732;2022-12-29T06:56:15;100864.09;;;2.99;100.00
8051;BME280;4068;42.158;24.732;2022-12-29T06:58:40;100893.25;;;3.18;100.00
8051;BME280;4068;42.158;24.732;2022-12-29T07:01:05;100898.34;;;3.24;100.00
8051;BME280;4068;42.158;24.732;2022-12-29T07:03:31;100876.97;;;3.08;100.00
8051;BME280;4068;42.158;24.732;2022-12-29T07:05:56;100881.44;;;3.03;100.00
8051;BME280;4068;42.158;24.732;2022-12-29T07:08:23;100888.00;;;2.86;100.00
8051;BME280;4068;42.158;24.732;2022-12-29T07:10:49;100905.97;;;3.00;100.00
8051;BME280;4068;42.158;24.732;2022-12-29T07:13:14;100912.72;;;3.09;100.00
8051;BME280;4068;42.158;24.732;2022-12-29T07:15:39;100912.63;;;3.12;100.00
8051;BME280;4068;42.158;24.732;2022-12-29T07:18:05;100900.25;;;2.86;100.00
8051;BME280;4068;42.158;24.732;2022-12-29T07:20:31;100909.91;;;2.85;100.00
8051;BME280;4068;42.158;24.732;2022-12-29T07:22:56;100908.97;;;2.86;100.00
8051;BME280;4068;42.158;24.732;2022-12-29T07:25:22;100908.03;;;2.89;100.00
8051;BME280;4068;42.158;24.732;2022-12-29T07:27:47;100908.88;;;2.91;100.00
8051;BME280;4068;42.158;24.732;2022-12-29T07:30:14;100877.69;;;2.80;100.00
8051;BME280;4068;42.158;24.732;2022-12-29T07:32:39;100894.78;;;2.95;100.00
8051;BME280;4068;42.158;24.732;2022-12-29T07:35:05;100893.00;;;2.96;100.00
8051;BME280;4068;42.158;24.732;2022-12-29T07:37:30;100869.56;;;2.91;100.00
8051;BME280;4068;42.158;24.732;2022-12-29T07:39:56;100911.66;;;3.16;100.00
8051;BME280;4068;42.158;24.732;2022-12-29T07:42:21;100903.50;;;3.27;100.00
8051;BME280;4068;42.158;24.732;2022-12-29T07:44:46;100882.31;;;3.03;100.00
8051;BME280;4068;42.158;24.732;2022-12-29T07:47:12;100900.88;;;3.27;100.00
8051;BME280;4068;42.158;24.732;2022-12-29T07:49:37;100910.06;;;3.42;100.00
8051;BME280;4068;42.158;24.732;2022-12-29T07:52:03;100907.91;;;3.56;100.00
8051;BME280;4068;42.158;24.732;2022-12-29T07:54:28;100911.16;;;3.65;100.00
8051;BME280;4068;42.158;24.732;2022-12-29T07:56:54;100872.66;;;3.65;100.00
8051;BME280;4068;42.158;24.732;2022-12-29T07:59:20;100908.16;;;4.05;100.00
8051;BME280;4068;42.158;24.732;2022-12-29T08:01:45;100886.91;;;3.85;100.00
8051;BME280;4068;42.158;24.732;2022-12-29T08:04:11;100915.78;;;4.13;100.00
8051;BME280;4068;42.158;24.732;2022-12-29T08:06:36;100882.66;;;4.09;100.00
8051;BME280;4068;42.158;24.732;2022-12-29T08:09:03;100915.56;;;4.21;100.00
8051;BME280;4068;42.158;24.732;2022-12-29T08:11:28;100916.31;;;4.24;100.00
8051;BME280;4068;42.158;24.732;2022-12-29T08:13:54;100912.63;;;4.30;100.00
8051;BME280;4068;42.158;24.732;2022-12-29T08:16:19;100913.34;;;4.35;100.00
8051;BME280;4068;42.158;24.732;2022-12-29T08:18:45;100918.69;;;4.32;100.00
8051;BME280;4068;42.158;24.732;2022-12-29T08:21:11;100910.31;;;4.21;100.00
8051;BME280;4068;42.158;24.732;2022-12-29T08:23:36;100899.13;;;4.14;100.00
8051;BME280;4068;42.158;24.732;2022-12-29T08:26:05;100887.38;;;4.26;100.00
8051;BME280;4068;42.158;24.732;2022-12-29T08:28:31;100905.91;;;4.48;100.00
8051;BME280;4068;42.158;24.732;2022-12-29T08:30:58;100905.91;;;4.48;100.00
8051;BME280;4068;42.158;24.732;2022-12-29T08:33:25;100869.25;;;4.45;100.00
8051;BME280;4068;42.158;24.732;2022-12-29T08:35:51;100883.25;;;4.71;100.00
8051;BME280;4068;42.158;24.732;2022-12-29T08:38:16;100866.34;;;4.78;100.00
8051;BME280;4068;42.158;24.732;2022-12-29T08:40:43;100895.28;;;5.03;100.00
8051;BME280;4068;42.158;24.732;2022-12-29T08:43:08;100895.75;;;5.13;100.00
8051;BME280;4068;42.158;24.732;2022-12-29T08:45:34;100894.59;;;5.22;100.00
8051;BME280;4068;42.158;24.732;2022-12-29T08:47:59;100876.69;;;5.31;100.00
8051;BME280;4068;42.158;24.732;2022-12-29T08:50:25;100881.09;;;5.55;100.00
8051;BME280;4068;42.158;24.732;2022-12-29T08:52:50;100860.41;;;5.67;100.00
8051;BME280;4068;42.158;24.732;2022-12-29T08:55:16;100884.88;;;5.93;100.00
8051;BME280;4068;42.158;24.732;2022-12-29T08:57:42;100857.72;;;5.91;100.00
8051;BME280;4068;42.158;24.732;2022-12-29T09:00:07;100870.59;;;6.21;100.00
8051;BME280;4068;42.158;24.732;2022-12-29T09:02:33;100875.97;;;6.40;100.00
8051;BME280;4068;42.158;24.732;2022-12-29T09:04:58;100878.06;;;6.52;100.00
8051;BME280;4068;42.158;24.732;2022-12-29T09:07:25;100836.50;;;6.38;100.00
8051;BME280;4068;42.158;24.732;2022-12-29T09:09:50;100857.59;;;6.59;100.00
8051;BME280;4068;42.158;24.732;2022-12-29T09:12:17;100833.81;;;6.61;100.00
8051;BME280;4068;42.158;24.732;2022-12-29T09:14:42;100853.47;;;6.93;100.00
8051;BME280;4068;42.158;24.732;2022-12-29T09:17:09;100864.19;;;7.09;100.00
8051;BME280;4068;42.158;24.732;2022-12-29T09:19:53;100832.31;;;7.14;100.00
8051;BME280;4068;42.158;24.732;2022-12-29T09:22:19;100856.81;;;7.36;100.00
8051;BME280;4068;42.158;24.732;2022-12-29T09:24:45;100803.81;;;7.22;100.00
8051;BME280;4068;42.158;24.732;2022-12-29T09:27:10;100852.75;;;7.67;100.00
8051;BME280;4068;42.158;24.732;2022-12-29T09:29:35;100853.78;;;7.82;100.00
8051;BME280;4068;42.158;24.732;2022-12-29T09:32:01;100843.38;;;7.79;100.00
8051;BME280;4068;42.158;24.732;2022-12-29T09:34:27;100846.81;;;7.62;100.00
8051;BME280;4068;42.158;24.732;2022-12-29T09:36:52;100833.69;;;7.80;100.00
8051;BME280;4068;42.158;24.732;2022-12-29T09:39:18;100826.53;;;7.82;100.00
8051;BME280;4068;42.158;24.732;2022-12-29T09:44:39;100813.97;;;8.04;100.00
8051;BME280;4068;42.158;24.732;2022-12-29T09:47:11;100811.72;;;8.14;100.00
8051;BME280;4068;42.158;24.732;2022-12-29T09:49:46;100807.84;;;8.39;100.00
8051;BME280;4068;42.158;24.732;2022-12-29T09:52:19;100801.72;;;8.56;100.00
8051;BME280;4068;42.158;24.732;2022-12-29T09:54:56;100769.81;;;8.41;100.00
8051;BME280;4068;42.158;24.732;2022-12-29T10:00:03;100784.25;;;8.69;100.00
8051;BME280;4068;42.158;24.732;2022-12-29T10:02:38;100783.06;;;8.75;100.00
8051;BME280;4068;42.158;24.732;2022-12-29T10:05:16;100770.56;;;8.94;100.00
8051;BME280;4068;42.158;24.732;2022-12-29T10:08:14;100741.63;;;8.75;100.00
8051;BME280;4068;42.158;24.732;2022-12-29T10:10:54;100765.13;;;9.13;100.00
8051;BME280;4068;42.158;24.732;2022-12-29T10:14:17;100733.13;;;9.18;100.00
8051;BME280;4068;42.158;24.732;2022-12-29T10:16:26;100765.50;;;9.39;100.00
8051;BME280;4068;42.158;24.732;2022-12-29T10:19:06;100755.31;;;9.47;100.00
8051;BME280;4068;42.158;24.732;2022-12-29T10:24:22;100746.16;;;9.53;100.00
8051;BME280;4068;42.158;24.732;2022-12-29T10:26:48;100716.38;;;9.49;100.00
8051;BME280;4068;42.158;24.732;2022-12-29T10:29:19;100718.13;;;9.65;100.00
8051;BME280;4068;42.158;24.732;2022-12-29T10:31:50;100752.03;;;9.74;100.00
8051;BME280;4068;42.158;24.732;2022-12-29T10:34:24;100735.38;;;9.72;100.00
8051;BME280;4068;42.158;24.732;2022-12-29T10:37:55;100700.25;;;9.68;100.00
8051;BME280;4068;42.158;24.732;2022-12-29T10:39:51;100714.13;;;9.88;100.00
8051;BME280;4068;42.158;24.732;2022-12-29T10:42:36;100718.41;;;9.91;100.00
8051;BME280;4068;42.158;24.732;2022-12-29T10:45:03;100727.69;;;9.98;100.00
8051;BME280;4068;42.158;24.732;2022-12-29T10:47:33;100721.72;;;9.94;100.00
8051;BME280;4068;42.158;24.732;2022-12-29T10:50:01;100692.25;;;9.84;100.00
8051;BME280;4068;42.158;24.732;2022-12-29T10:52:28;100716.81;;;10.02;100.00
8051;BME280;4068;42.158;24.732;2022-12-29T10:55:00;100718.34;;;10.07;100.00
8051;BME280;4068;42.158;24.732;2022-12-29T10:57:34;100718.53;;;10.04;100.00
8051;BME280;4068;42.158;24.732;2022-12-29T11:00:01;100708.38;;;10.10;100.00
8051;BME280;4068;42.158;24.732;2022-12-29T11:02:48;100707.56;;;10.24;100.00
8051;BME280;4068;42.158;24.732;2022-12-29T11:08:21;100693.50;;;10.52;97.68
8051;BME280;4068;42.158;24.732;2022-12-29T11:10:59;100699.28;;;10.74;97.72
8051;BME280;4068;42.158;24.732;2022-12-29T11:13:29;100646.25;;;10.45;96.73
8051;BME280;4068;42.158;24.732;2022-12-29T11:15:55;100661.66;;;10.24;97.41
8051;BME280;4068;42.158;24.732;2022-12-29T11:18:26;100683.19;;;9.89;100.00
8051;BME280;4068;42.158;24.732;2022-12-29T11:20:57;100684.06;;;10.04;100.00
8051;BME280;4068;42.158;24.732;2022-12-29T11:26:22;100676.34;;;10.29;99.04
8051;BME280;4068;42.158;24.732;2022-12-29T11:31:29;100652.69;;;10.41;98.26
8051;BME280;4068;42.158;24.732;2022-12-29T11:33:55;100692.25;;;10.73;97.16
8051;BME280;4068;42.158;24.732;2022-12-29T11:36:22;100679.00;;;10.73;97.47
8051;BME280;4068;42.158;24.732;2022-12-29T11:38:53;100654.38;;;10.70;96.79
8051;BME280;4068;42.158;24.732;2022-12-29T11:41:22;100637.91;;;10.51;97.53
8051;BME280;4068;42.158;24.732;2022-12-29T11:43:49;100665.69;;;10.87;97.14
8051;BME280;4068;42.158;24.732;2022-12-29T11:48:51;100662.31;;;10.27;97.80
8051;BME280;4068;42.158;24.732;2022-12-29T11:51:32;100629.75;;;10.11;97.01
8051;BME280;4068;42.158;24.732;2022-12-29T11:54:02;100663.59;;;10.50;97.73
8051;BME280;4068;42.158;24.732;2022-12-29T11:56:38;100630.34;;;10.45;96.90
8051;BME280;4068;42.158;24.732;2022-12-29T11:59:34;100645.66;;;10.54;95.45
8051;BME280;4068;42.158;24.732;2022-12-29T12:08:17;100645.06;;;10.78;95.86
8051;BME280;4068;42.158;24.732;2022-12-29T12:13:34;100635.66;;;10.86;95.55
8051;BME280;4068;42.158;24.732;2022-12-29T12:16:08;100610.00;;;10.73;94.52
8051;BME280;4068;42.158;24.732;2022-12-29T12:21:10;100632.81;;;10.90;94.75
8051;BME280;4068;42.158;24.732;2022-12-29T12:26:20;100611.25;;;10.67;94.42
8051;BME280;4068;42.158;24.732;2022-12-29T12:28:53;100618.97;;;10.84;94.71
8051;BME280;4068;42.158;24.732;2022-12-29T12:34:06;100626.88;;;10.86;94.40
8051;BME280;4068;42.158;24.732;2022-12-29T12:44:31;100616.03;;;10.62;95.08
8051;BME280;4068;42.158;24.732;2022-12-29T12:47:14;100609.69;;;10.77;94.12
8051;BME280;4068;42.158;24.732;2022-12-29T12:58:09;100613.44;;;10.60;95.55
8051;BME280;4068;42.158;24.732;2022-12-29T13:03:47;100617.50;;;10.66;95.20
8051;BME280;4068;42.158;24.732;2022-12-29T13:09:22;100621.25;;;10.49;95.34
8051;BME280;4068;42.158;24.732;2022-12-29T13:12:09;100628.81;;;10.55;95.55
8051;BME280;4068;42.158;24.732;2022-12-29T13:14:54;100618.84;;;10.44;95.46
8051;BME280;4068;42.158;24.732;2022-12-29T13:17:41;100621.50;;;10.44;95.77
8051;BME280;4068;42.158;24.732;2022-12-29T13:23:05;100623.91;;;10.49;96.03
8051;BME280;4068;42.158;24.732;2022-12-29T13:26:28;100619.84;;;10.43;95.84
8051;BME280;4068;42.158;24.732;2022-12-29T13:31:15;100615.00;;;10.35;96.59
8051;BME280;4068;42.158;24.732;2022-12-29T13:36:33;100614.41;;;10.30;96.74
8051;BME280;4068;42.158;24.732;2022-12-29T13:39:23;100590.63;;;10.14;96.98
8051;BME280;4068;42.158;24.732;2022-12-29T13:41:52;100617.53;;;10.23;97.39
8051;BME280;4068;42.158;24.732;2022-12-29T13:46:48;100616.94;;;10.17;98.02
8051;BME280;4068;42.158;24.732;2022-12-29T13:49:20;100617.63;;;10.07;98.53
8051;BME280;4068;42.158;24.732;2022-12-29T13:51:53;100616.41;;;9.98;99.00
8051;BME280;4068;42.158;24.732;2022-12-29T13:54:37;100607.94;;;9.91;99.47
8051;BME280;4068;42.158;24.732;2022-12-29T14:07:46;100621.56;;;9.71;100.00
8051;BME280;4068;42.158;24.732;2022-12-29T14:13:14;100619.91;;;9.54;100.00
8051;BME280;4068;42.158;24.732;2022-12-29T14:15:42;100614.97;;;9.47;100.00
8051;BME280;4068;42.158;24.732;2022-12-29T14:18:20;100611.53;;;9.31;100.00
8051;BME280;4068;42.158;24.732;2022-12-29T14:28:33;100620.19;;;9.03;100.00
8051;BME280;4068;42.158;24.732;2022-12-29T14:31:04;100614.91;;;8.87;100.00
8051;BME280;4068;42.158;24.732;2022-12-29T14:33:31;100623.19;;;8.80;100.00
8051;BME280;4068;42.158;24.732;2022-12-29T14:36:20;100608.19;;;8.65;100.00
8051;BME280;4068;42.158;24.732;2022-12-29T14:38:47;100607.06;;;8.53;100.00
8051;BME280;4068;42.158;24.732;2022-12-29T14:41:42;100631.88;;;8.51;100.00
8051;BME280;4068;42.158;24.732;2022-12-29T14:47:05;100625.53;;;8.37;100.00
8051;BME280;4068;42.158;24.732;2022-12-29T14:49:40;100633.25;;;8.24;100.00
8051;BME280;4068;42.158;24.732;2022-12-29T14:52:14;100627.34;;;8.19;100.00
8051;BME280;4068;42.158;24.732;2022-12-29T14:54:45;100618.38;;;8.06;100.00
8051;BME280;4068;42.158;24.732;2022-12-29T14:57:20;100622.13;;;8.02;100.00
8051;BME280;4068;42.158;24.732;2022-12-29T14:59:47;100626.72;;;7.98;100.00
8051;BME280;4068;42.158;24.732;2022-12-29T15:02:21;100625.25;;;7.92;100.00
8051;BME280;4068;42.158;24.732;2022-12-29T15:04:47;100623.63;;;7.90;100.00
8051;BME280;4068;42.158;24.732;2022-12-29T15:07:13;100591.16;;;7.70;100.00
8051;BME280;4068;42.158;24.732;2022-12-29T15:09:46;100627.44;;;7.84;100.00
8051;BME280;4068;42.158;24.732;2022-12-29T15:15:00;100631.00;;;7.83;100.00
8051;BME280;4068;42.158;24.732;2022-12-29T15:17:33;100633.97;;;7.77;100.00
8051;BME280;4068;42.158;24.732;2022-12-29T15:20:03;100631.06;;;7.82;100.00
8051;BME280;4068;42.158;24.732;2022-12-29T15:22:52;100634.19;;;7.72;100.00
8051;BME280;4068;42.158;24.732;2022-12-29T15:25:18;100626.41;;;7.69;100.00
8051;BME280;4068;42.158;24.732;2022-12-29T15:27:49;100634.19;;;7.72;100.00
8051;BME280;4068;42.158;24.732;2022-12-29T15:30:15;100637.78;;;7.71;100.00
8051;BME280;4068;42.158;24.732;2022-12-29T15:32:46;100609.50;;;7.56;100.00
8051;BME280;4068;42.158;24.732;2022-12-29T15:35:28;100635.91;;;7.73;100.00
8051;BME280;4068;42.158;24.732;2022-12-29T15:37:54;100641.34;;;7.70;100.00